sensor_id;sensor_type;location;lat;lon;timestamp;P1;durP1;ratioP1;P2;durP2;ratioP2
67757;SDS011;54562;47.620;18.786;2022-10-16T00:01:44;11.80;;;6.60;;
67757;SDS011;54562;47.620;18.786;2022-10-16T00:04:52;12.30;;;7.10;;
67757;SDS011;54562;47.620;18.786;2022-10-16T00:08:00;14.10;;;7.00;;
67757;SDS011;54562;47.620;18.786;2022-10-16T00:14:15;12.00;;;6.70;;
67757;SDS011;54562;47.620;18.786;2022-10-16T00:17:23;12.60;;;6.90;;
67757;SDS011;54562;47.620;18.786;2022-10-16T00:20:31;12.70;;;6.90;;
67757;SDS011;54562;47.620;18.786;2022-10-16T00:23:42;16.80;;;7.20;;
67757;SDS011;54562;47.620;18.786;2022-10-16T00:26:50;18.10;;;7.00;;
67757;SDS011;54562;47.620;18.786;2022-10-16T00:30:00;10.20;;;6.40;;
67757;SDS011;54562;47.620;18.786;2022-10-16T00:33:08;14.50;;;7.20;;
67757;SDS011;54562;47.620;18.786;2022-10-16T00:36:18;13.60;;;7.20;;
67757;SDS011;54562;47.620;18.786;2022-10-16T00:39:27;12.30;;;6.90;;
67757;SDS011;54562;47.620;18.786;2022-10-16T00:42:35;11.10;;;6.50;;
67757;SDS011;54562;47.620;18.786;2022-10-16T00:45:44;12.00;;;7.30;;
67757;SDS011;54562;47.620;18.786;2022-10-16T00:48:59;11.80;;;6.90;;
67757;SDS011;54562;47.620;18.786;2022-10-16T00:52:09;12.50;;;7.30;;
67757;SDS011;54562;47.620;18.786;2022-10-16T00:55:18;12.00;;;6.80;;
67757;SDS011;54562;47.620;18.786;2022-10-16T00:58:27;11.80;;;6.90;;
67757;SDS011;54562;47.620;18.786;2022-10-16T01:01:35;13.40;;;7.40;;
67757;SDS011;54562;47.620;18.786;2022-10-16T01:04:46;11.50;;;7.10;;
67757;SDS011;54562;47.620;18.786;2022-10-16T01:08:01;13.20;;;7.10;;
67757;SDS011;54562;47.620;18.786;2022-10-16T01:11:21;12.50;;;7.20;;
67757;SDS011;54562;47.620;18.786;2022-10-16T01:14:40;11.00;;;6.80;;
67757;SDS011;54562;47.620;18.786;2022-10-16T01:18:00;12.00;;;7.00;;
67757;SDS011;54562;47.620;18.786;2022-10-16T01:21:15;12.30;;;7.00;;
67757;SDS011;54562;47.620;18.786;2022-10-16T01:24:38;12.50;;;6.70;;
67757;SDS011;54562;47.620;18.786;2022-10-16T01:27:56;12.30;;;7.00;;
67757;SDS011;54562;47.620;18.786;2022-10-16T01:31:05;13.20;;;6.70;;
67757;SDS011;54562;47.620;18.786;2022-10-16T01:34:18;14.30;;;7.60;;
67757;SDS011;54562;47.620;18.786;2022-10-16T01:37:35;12.50;;;7.20;;
67757;SDS011;54562;47.620;18.786;2022-10-16T01:40:50;11.90;;;6.90;;
67757;SDS011;54562;47.620;18.786;2022-10-16T01:44:07;14.00;;;7.90;;
67757;SDS011;54562;47.620;18.786;2022-10-16T01:47:22;12.40;;;7.70;;
67757;SDS011;54562;47.620;18.786;2022-10-16T01:50:33;13.90;;;7.10;;
67757;SDS011;54562;47.620;18.786;2022-10-16T01:53:48;17.30;;;7.80;;
67757;SDS011;54562;47.620;18.786;2022-10-16T01:56:59;12.20;;;7.40;;
67757;SDS011;54562;47.620;18.786;2022-10-16T02:00:12;13.20;;;7.60;;
67757;SDS011;54562;47.620;18.786;2022-10-16T02:03:23;14.10;;;7.60;;
67757;SDS011;54562;47.620;18.786;2022-10-16T02:06:31;13.20;;;7.80;;
67757;SDS011;54562;47.620;18.786;2022-10-16T02:09:40;13.70;;;7.40;;
67757;SDS011;54562;47.620;18.786;2022-10-16T02:12:53;14.80;;;7.60;;
67757;SDS011;54562;47.620;18.786;2022-10-16T02:16:08;13.50;;;7.60;;
67757;SDS011;54562;47.620;18.786;2022-10-16T02:19:18;13.40;;;7.80;;
67757;SDS011;54562;47.620;18.786;2022-10-16T02:22:30;12.40;;;7.30;;
67757;SDS011;54562;47.620;18.786;2022-10-16T02:25:43;15.30;;;7.80;;
67757;SDS011;54562;47.620;18.786;2022-10-16T02:28:56;15.70;;;7.70;;
67757;SDS011;54562;47.620;18.786;2022-10-16T02:32:11;13.80;;;7.70;;
67757;SDS011;54562;47.620;18.786;2022-10-16T02:35:23;12.10;;;7.50;;
67757;SDS011;54562;47.620;18.786;2022-10-16T02:38:32;14.60;;;7.50;;
67757;SDS011;54562;47.620;18.786;2022-10-16T02:41:41;14.30;;;7.80;;
67757;SDS011;54562;47.620;18.786;2022-10-16T02:44:49;12.50;;;7.90;;
67757;SDS011;54562;47.620;18.786;2022-10-16T02:47:58;17.30;;;7.90;;
67757;SDS011;54562;47.620;18.786;2022-10-16T02:51:06;15.30;;;7.60;;
67757;SDS011;54562;47.620;18.786;2022-10-16T02:54:15;13.10;;;7.30;;
67757;SDS011;54562;47.620;18.786;2022-10-16T02:57:23;15.40;;;8.20;;
67757;SDS011;54562;47.620;18.786;2022-10-16T03:00:32;12.70;;;7.40;;
67757;SDS011;54562;47.620;18.786;2022-10-16T03:03:40;13.80;;;7.40;;
67757;SDS011;54562;47.620;18.786;2022-10-16T03:06:48;14.20;;;7.60;;
67757;SDS011;54562;47.620;18.786;2022-10-16T03:09:57;16.50;;;7.70;;
67757;SDS011;54562;47.620;18.786;2022-10-16T03:13:06;15.60;;;8.00;;
67757;SDS011;54562;47.620;18.786;2022-10-16T03:16:14;12.30;;;7.40;;
67757;SDS011;54562;47.620;18.786;2022-10-16T03:19:22;12.50;;;7.50;;
67757;SDS011;54562;47.620;18.786;2022-10-16T03:22:30;15.30;;;8.30;;
67757;SDS011;54562;47.620;18.786;2022-10-16T03:25:39;13.90;;;7.60;;
67757;SDS011;54562;47.620;18.786;2022-10-16T03:28:47;12.70;;;8.20;;
67757;SDS011;54562;47.620;18.786;2022-10-16T03:31:55;15.60;;;7.50;;
67757;SDS011;54562;47.620;18.786;2022-10-16T03:35:04;13.90;;;7.40;;
67757;SDS011;54562;47.620;18.786;2022-10-16T03:38:13;13.50;;;8.00;;
67757;SDS011;54562;47.620;18.786;2022-10-16T03:41:22;13.50;;;7.60;;
67757;SDS011;54562;47.620;18.786;2022-10-16T03:44:31;12.00;;;7.70;;
67757;SDS011;54562;47.620;18.786;2022-10-16T03:47:40;13.30;;;8.30;;
67757;SDS011;54562;47.620;18.786;2022-10-16T03:50:48;14.80;;;8.20;;
67757;SDS011;54562;47.620;18.786;2022-10-16T03:53:58;15.90;;;8.00;;
67757;SDS011;54562;47.620;18.786;2022-10-16T03:57:07;13.80;;;7.80;;
67757;SDS011;54562;47.620;18.786;2022-10-16T04:00:16;15.00;;;7.90;;
67757;SDS011;54562;47.620;18.786;2022-10-16T04:03:24;13.00;;;7.60;;
67757;SDS011;54562;47.620;18.786;2022-10-16T04:06:33;14.30;;;8.10;;
67757;SDS011;54562;47.620;18.786;2022-10-16T04:09:42;14.30;;;7.60;;
67757;SDS011;54562;47.620;18.786;2022-10-16T04:12:50;16.50;;;8.10;;
67757;SDS011;54562;47.620;18.786;2022-10-16T04:16:02;13.10;;;7.50;;
67757;SDS011;54562;47.620;18.786;2022-10-16T04:19:12;13.10;;;7.80;;
67757;SDS011;54562;47.620;18.786;2022-10-16T04:22:20;12.70;;;7.80;;
67757;SDS011;54562;47.620;18.786;2022-10-16T04:25:35;15.60;;;8.10;;
67757;SDS011;54562;47.620;18.786;2022-10-16T04:28:43;13.40;;;7.30;;
67757;SDS011;54562;47.620;18.786;2022-10-16T04:31:51;14.20;;;7.90;;
67757;SDS011;54562;47.620;18.786;2022-10-16T04:35:00;16.00;;;7.70;;
67757;SDS011;54562;47.620;18.786;2022-10-16T04:38:10;13.20;;;7.70;;
67757;SDS011;54562;47.620;18.786;2022-10-16T04:44:27;10.90;;;6.30;;
67757;SDS011;54562;47.620;18.786;2022-10-16T04:47:37;13.80;;;7.40;;
67757;SDS011;54562;47.620;18.786;2022-10-16T04:50:46;12.70;;;7.10;;
67757;SDS011;54562;47.620;18.786;2022-10-16T04:53:59;12.90;;;7.40;;
67757;SDS011;54562;47.620;18.786;2022-10-16T04:57:09;13.20;;;7.10;;
67757;SDS011;54562;47.620;18.786;2022-10-16T05:00:18;13.00;;;6.80;;
67757;SDS011;54562;47.620;18.786;2022-10-16T05:03:28;15.90;;;7.70;;
67757;SDS011;54562;47.620;18.786;2022-10-16T05:06:38;14.40;;;6.40;;
67757;SDS011;54562;47.620;18.786;2022-10-16T05:09:47;13.00;;;6.90;;
67757;SDS011;54562;47.620;18.786;2022-10-16T05:12:57;13.40;;;7.40;;
67757;SDS011;54562;47.620;18.786;2022-10-16T05:19:12;12.10;;;7.50;;
67757;SDS011;54562;47.620;18.786;2022-10-16T05:22:36;13.30;;;6.90;;
67757;SDS011;54562;47.620;18.786;2022-10-16T05:25:45;10.30;;;6.40;;
67757;SDS011;54562;47.620;18.786;2022-10-16T05:29:00;13.10;;;7.30;;
67757;SDS011;54562;47.620;18.786;2022-10-16T05:32:09;12.70;;;6.80;;
67757;SDS011;54562;47.620;18.786;2022-10-16T05:35:19;12.20;;;6.80;;
67757;SDS011;54562;47.620;18.786;2022-10-16T05:38:28;12.80;;;7.30;;
67757;SDS011;54562;47.620;18.786;2022-10-16T05:41:36;10.90;;;6.70;;
67757;SDS011;54562;47.620;18.786;2022-10-16T05:44:44;11.00;;;6.70;;
67757;SDS011;54562;47.620;18.786;2022-10-16T05:47:54;11.10;;;6.40;;
67757;SDS011;54562;47.620;18.786;2022-10-16T05:54:12;11.30;;;6.80;;
67757;SDS011;54562;47.620;18.786;2022-10-16T05:57:20;12.00;;;7.10;;
67757;SDS011;54562;47.620;18.786;2022-10-16T06:00:29;14.00;;;6.90;;
67757;SDS011;54562;47.620;18.786;2022-10-16T06:03:38;11.90;;;6.30;;
67757;SDS011;54562;47.620;18.786;2022-10-16T06:06:46;12.90;;;7.10;;
67757;SDS011;54562;47.620;18.786;2022-10-16T06:09:55;15.50;;;7.50;;
67757;SDS011;54562;47.620;18.786;2022-10-16T06:13:03;12.80;;;7.50;;
67757;SDS011;54562;47.620;18.786;2022-10-16T06:16:12;14.50;;;7.50;;
67757;SDS011;54562;47.620;18.786;2022-10-16T06:19:20;12.70;;;7.70;;
67757;SDS011;54562;47.620;18.786;2022-10-16T06:22:30;14.50;;;7.60;;
67757;SDS011;54562;47.620;18.786;2022-10-16T06:25:39;13.40;;;7.40;;
67757;SDS011;54562;47.620;18.786;2022-10-16T06:28:48;11.60;;;7.40;;
67757;SDS011;54562;47.620;18.786;2022-10-16T06:31:57;14.80;;;7.10;;
67757;SDS011;54562;47.620;18.786;2022-10-16T06:35:05;12.50;;;7.10;;
67757;SDS011;54562;47.620;18.786;2022-10-16T06:38:18;12.20;;;7.30;;
67757;SDS011;54562;47.620;18.786;2022-10-16T06:41:26;14.30;;;7.20;;
67757;SDS011;54562;47.620;18.786;2022-10-16T06:44:35;15.60;;;7.70;;
67757;SDS011;54562;47.620;18.786;2022-10-16T06:47:46;12.30;;;7.30;;
67757;SDS011;54562;47.620;18.786;2022-10-16T06:51:01;11.80;;;7.30;;
67757;SDS011;54562;47.620;18.786;2022-10-16T06:54:12;12.90;;;7.70;;
67757;SDS011;54562;47.620;18.786;2022-10-16T06:57:20;12.60;;;7.30;;
67757;SDS011;54562;47.620;18.786;2022-10-16T07:00:29;12.60;;;7.70;;
67757;SDS011;54562;47.620;18.786;2022-10-16T07:03:40;13.30;;;8.00;;
67757;SDS011;54562;47.620;18.786;2022-10-16T07:06:48;25.30;;;7.40;;
67757;SDS011;54562;47.620;18.786;2022-10-16T07:09:57;13.30;;;7.50;;
67757;SDS011;54562;47.620;18.786;2022-10-16T07:13:05;14.30;;;8.10;;
67757;SDS011;54562;47.620;18.786;2022-10-16T07:16:15;13.20;;;7.50;;
67757;SDS011;54562;47.620;18.786;2022-10-16T07:19:26;12.10;;;7.80;;
67757;SDS011;54562;47.620;18.786;2022-10-16T07:22:38;14.30;;;8.40;;
67757;SDS011;54562;47.620;18.786;2022-10-16T07:25:46;12.60;;;7.10;;
67757;SDS011;54562;47.620;18.786;2022-10-16T07:29:02;12.10;;;7.30;;
67757;SDS011;54562;47.620;18.786;2022-10-16T07:32:11;14.40;;;7.80;;
67757;SDS011;54562;47.620;18.786;2022-10-16T07:35:20;15.20;;;7.90;;
67757;SDS011;54562;47.620;18.786;2022-10-16T07:38:28;14.40;;;8.20;;
67757;SDS011;54562;47.620;18.786;2022-10-16T07:41:36;12.30;;;7.50;;
67757;SDS011;54562;47.620;18.786;2022-10-16T07:44:44;13.30;;;7.10;;
67757;SDS011;54562;47.620;18.786;2022-10-16T07:47:52;13.10;;;7.80;;
67757;SDS011;54562;47.620;18.786;2022-10-16T07:51:03;13.00;;;7.50;;
67757;SDS011;54562;47.620;18.786;2022-10-16T07:54:12;11.80;;;7.30;;
67757;SDS011;54562;47.620;18.786;2022-10-16T07:57:20;13.20;;;7.40;;
67757;SDS011;54562;47.620;18.786;2022-10-16T08:00:28;11.30;;;7.00;;
67757;SDS011;54562;47.620;18.786;2022-10-16T08:03:37;13.80;;;7.70;;
67757;SDS011;54562;47.620;18.786;2022-10-16T08:06:47;12.50;;;7.20;;
67757;SDS011;54562;47.620;18.786;2022-10-16T08:09:56;12.00;;;7.00;;
67757;SDS011;54562;47.620;18.786;2022-10-16T08:13:04;12.00;;;7.00;;
67757;SDS011;54562;47.620;18.786;2022-10-16T08:16:13;14.00;;;7.30;;
67757;SDS011;54562;47.620;18.786;2022-10-16T08:19:22;14.00;;;7.50;;
67757;SDS011;54562;47.620;18.786;2022-10-16T08:22:30;13.30;;;7.00;;
67757;SDS011;54562;47.620;18.786;2022-10-16T08:25:38;11.60;;;7.20;;
67757;SDS011;54562;47.620;18.786;2022-10-16T08:28:46;12.40;;;7.10;;
67757;SDS011;54562;47.620;18.786;2022-10-16T08:31:57;13.20;;;7.00;;
67757;SDS011;54562;47.620;18.786;2022-10-16T08:35:07;13.60;;;7.30;;
67757;SDS011;54562;47.620;18.786;2022-10-16T08:38:16;13.90;;;7.60;;
67757;SDS011;54562;47.620;18.786;2022-10-16T08:45:34;12.20;;;7.10;;
67757;SDS011;54562;47.620;18.786;2022-10-16T08:48:51;13.00;;;6.80;;
67757;SDS011;54562;47.620;18.786;2022-10-16T08:52:00;14.70;;;7.40;;
67757;SDS011;54562;47.620;18.786;2022-10-16T08:55:19;12.40;;;7.30;;
67757;SDS011;54562;47.620;18.786;2022-10-16T08:58:37;12.00;;;7.10;;
67757;SDS011;54562;47.620;18.786;2022-10-16T09:01:46;12.50;;;6.90;;
67757;SDS011;54562;47.620;18.786;2022-10-16T09:05:04;12.40;;;6.90;;
67757;SDS011;54562;47.620;18.786;2022-10-16T09:08:35;11.60;;;6.70;;
67757;SDS011;54562;47.620;18.786;2022-10-16T09:11:55;11.50;;;7.20;;
67757;SDS011;54562;47.620;18.786;2022-10-16T09:15:21;12.50;;;7.30;;
67757;SDS011;54562;47.620;18.786;2022-10-16T09:18:39;12.20;;;7.20;;
67757;SDS011;54562;47.620;18.786;2022-10-16T09:21:54;13.50;;;7.00;;
67757;SDS011;54562;47.620;18.786;2022-10-16T09:25:13;13.20;;;7.20;;
67757;SDS011;54562;47.620;18.786;2022-10-16T09:28:23;12.80;;;7.40;;
67757;SDS011;54562;47.620;18.786;2022-10-16T09:31:31;13.50;;;7.50;;
67757;SDS011;54562;47.620;18.786;2022-10-16T09:34:45;13.10;;;6.60;;
67757;SDS011;54562;47.620;18.786;2022-10-16T09:37:57;11.90;;;7.00;;
67757;SDS011;54562;47.620;18.786;2022-10-16T09:41:15;10.70;;;6.90;;
67757;SDS011;54562;47.620;18.786;2022-10-16T09:44:27;12.80;;;6.80;;
67757;SDS011;54562;47.620;18.786;2022-10-16T09:47:42;16.00;;;7.00;;
67757;SDS011;54562;47.620;18.786;2022-10-16T09:50:59;12.20;;;7.10;;
67757;SDS011;54562;47.620;18.786;2022-10-16T09:54:17;12.10;;;6.90;;
67757;SDS011;54562;47.620;18.786;2022-10-16T09:57:26;13.70;;;6.60;;
67757;SDS011;54562;47.620;18.786;2022-10-16T10:00:36;13.40;;;6.80;;
67757;SDS011;54562;47.620;18.786;2022-10-16T10:03:47;12.40;;;7.00;;
67757;SDS011;54562;47.620;18.786;2022-10-16T10:06:58;9.80;;;6.30;;
67757;SDS011;54562;47.620;18.786;2022-10-16T10:10:19;14.30;;;7.40;;
67757;SDS011;54562;47.620;18.786;2022-10-16T10:13:29;13.50;;;7.10;;
67757;SDS011;54562;47.620;18.786;2022-10-16T10:16:37;11.80;;;6.80;;
67757;SDS011;54562;47.620;18.786;2022-10-16T10:19:49;12.50;;;6.60;;
67757;SDS011;54562;47.620;18.786;2022-10-16T10:22:59;15.10;;;6.50;;
67757;SDS011;54562;47.620;18.786;2022-10-16T10:26:10;9.60;;;6.60;;
67757;SDS011;54562;47.620;18.786;2022-10-16T10:29:41;12.40;;;6.90;;
67757;SDS011;54562;47.620;18.786;2022-10-16T10:33:09;12.80;;;6.50;;
67757;SDS011;54562;47.620;18.786;2022-10-16T10:36:30;10.80;;;6.30;;
67757;SDS011;54562;47.620;18.786;2022-10-16T10:39:46;12.30;;;7.00;;
67757;SDS011;54562;47.620;18.786;2022-10-16T10:43:03;12.30;;;7.10;;
67757;SDS011;54562;47.620;18.786;2022-10-16T10:46:20;12.20;;;6.80;;
67757;SDS011;54562;47.620;18.786;2022-10-16T10:49:46;10.20;;;6.50;;
67757;SDS011;54562;47.620;18.786;2022-10-16T10:53:06;10.50;;;6.40;;
67757;SDS011;54562;47.620;18.786;2022-10-16T10:56:37;13.20;;;6.80;;
67757;SDS011;54562;47.620;18.786;2022-10-16T11:06:48;11.70;;;6.30;;
67757;SDS011;54562;47.620;18.786;2022-10-16T11:10:05;12.30;;;5.50;;
67757;SDS011;54562;47.620;18.786;2022-10-16T11:13:26;9.80;;;6.00;;
67757;SDS011;54562;47.620;18.786;2022-10-16T11:16:42;11.20;;;5.90;;
67757;SDS011;54562;47.620;18.786;2022-10-16T11:19:58;10.50;;;5.50;;
67757;SDS011;54562;47.620;18.786;2022-10-16T11:23:16;10.30;;;6.00;;
67757;SDS011;54562;47.620;18.786;2022-10-16T11:26:32;9.00;;;5.00;;
67757;SDS011;54562;47.620;18.786;2022-10-16T11:29:51;9.10;;;5.00;;
67757;SDS011;54562;47.620;18.786;2022-10-16T11:33:18;9.30;;;5.00;;
67757;SDS011;54562;47.620;18.786;2022-10-16T11:36:38;8.70;;;5.20;;
67757;SDS011;54562;47.620;18.786;2022-10-16T11:39:52;8.40;;;4.80;;
67757;SDS011;54562;47.620;18.786;2022-10-16T11:43:15;8.90;;;4.80;;
67757;SDS011;54562;47.620;18.786;2022-10-16T11:46:28;9.10;;;5.20;;
67757;SDS011;54562;47.620;18.786;2022-10-16T11:49:40;9.60;;;5.00;;
67757;SDS011;54562;47.620;18.786;2022-10-16T11:52:55;8.50;;;4.90;;
67757;SDS011;54562;47.620;18.786;2022-10-16T11:56:07;10.10;;;4.70;;
67757;SDS011;54562;47.620;18.786;2022-10-16T11:59:23;9.70;;;5.10;;
67757;SDS011;54562;47.620;18.786;2022-10-16T12:02:44;9.10;;;5.00;;
67757;SDS011;54562;47.620;18.786;2022-10-16T12:06:18;11.40;;;5.30;;
67757;SDS011;54562;47.620;18.786;2022-10-16T12:09:41;8.40;;;5.20;;
67757;SDS011;54562;47.620;18.786;2022-10-16T12:12:49;8.00;;;4.70;;
67757;SDS011;54562;47.620;18.786;2022-10-16T12:16:22;9.00;;;4.90;;
67757;SDS011;54562;47.620;18.786;2022-10-16T12:19:32;10.80;;;5.50;;
67757;SDS011;54562;47.620;18.786;2022-10-16T12:22:48;9.10;;;5.20;;
67757;SDS011;54562;47.620;18.786;2022-10-16T12:26:00;8.00;;;4.90;;
67757;SDS011;54562;47.620;18.786;2022-10-16T12:29:21;10.00;;;5.00;;
67757;SDS011;54562;47.620;18.786;2022-10-16T12:32:36;10.40;;;5.00;;
67757;SDS011;54562;47.620;18.786;2022-10-16T12:35:51;9.10;;;4.80;;
67757;SDS011;54562;47.620;18.786;2022-10-16T12:39:02;7.90;;;4.70;;
67757;SDS011;54562;47.620;18.786;2022-10-16T12:42:33;11.00;;;4.80;;
67757;SDS011;54562;47.620;18.786;2022-10-16T12:45:45;9.50;;;4.60;;
67757;SDS011;54562;47.620;18.786;2022-10-16T12:49:04;9.70;;;5.50;;
67757;SDS011;54562;47.620;18.786;2022-10-16T12:52:37;7.80;;;4.10;;
67757;SDS011;54562;47.620;18.786;2022-10-16T12:55:54;9.40;;;4.80;;
67757;SDS011;54562;47.620;18.786;2022-10-16T12:59:16;8.80;;;4.70;;
67757;SDS011;54562;47.620;18.786;2022-10-16T13:02:51;9.10;;;4.70;;
67757;SDS011;54562;47.620;18.786;2022-10-16T13:06:33;10.60;;;5.30;;
67757;SDS011;54562;47.620;18.786;2022-10-16T13:09:55;8.40;;;4.70;;
67757;SDS011;54562;47.620;18.786;2022-10-16T13:13:29;8.50;;;4.90;;
67757;SDS011;54562;47.620;18.786;2022-10-16T13:16:56;10.60;;;5.00;;
67757;SDS011;54562;47.620;18.786;2022-10-16T13:20:21;8.30;;;4.80;;
67757;SDS011;54562;47.620;18.786;2022-10-16T13:23:38;8.10;;;4.90;;
67757;SDS011;54562;47.620;18.786;2022-10-16T13:26:59;8.50;;;5.00;;
67757;SDS011;54562;47.620;18.786;2022-10-16T13:30:19;9.70;;;5.30;;
67757;SDS011;54562;47.620;18.786;2022-10-16T13:33:37;9.70;;;4.80;;
67757;SDS011;54562;47.620;18.786;2022-10-16T13:36:48;10.80;;;4.90;;
67757;SDS011;54562;47.620;18.786;2022-10-16T13:40:12;9.70;;;5.00;;
67757;SDS011;54562;47.620;18.786;2022-10-16T13:43:31;9.10;;;5.10;;
67757;SDS011;54562;47.620;18.786;2022-10-16T13:46:41;9.30;;;5.00;;
67757;SDS011;54562;47.620;18.786;2022-10-16T13:50:01;9.00;;;4.90;;
67757;SDS011;54562;47.620;18.786;2022-10-16T13:53:14;9.40;;;5.20;;
67757;SDS011;54562;47.620;18.786;2022-10-16T13:56:24;9.60;;;5.20;;
67757;SDS011;54562;47.620;18.786;2022-10-16T13:59:36;8.80;;;5.10;;
67757;SDS011;54562;47.620;18.786;2022-10-16T14:02:45;8.70;;;4.70;;
67757;SDS011;54562;47.620;18.786;2022-10-16T14:06:03;13.10;;;5.20;;
67757;SDS011;54562;47.620;18.786;2022-10-16T14:09:23;11.50;;;5.10;;
67757;SDS011;54562;47.620;18.786;2022-10-16T14:12:33;9.20;;;5.30;;
67757;SDS011;54562;47.620;18.786;2022-10-16T14:15:47;10.10;;;5.20;;
67757;SDS011;54562;47.620;18.786;2022-10-16T14:19:00;13.00;;;5.30;;
67757;SDS011;54562;47.620;18.786;2022-10-16T14:22:24;13.10;;;5.30;;
67757;SDS011;54562;47.620;18.786;2022-10-16T14:25:37;9.10;;;5.20;;
67757;SDS011;54562;47.620;18.786;2022-10-16T14:28:47;11.40;;;5.30;;
67757;SDS011;54562;47.620;18.786;2022-10-16T14:32:22;9.60;;;5.20;;
67757;SDS011;54562;47.620;18.786;2022-10-16T14:35:33;9.80;;;5.30;;
67757;SDS011;54562;47.620;18.786;2022-10-16T14:38:49;8.20;;;4.90;;
67757;SDS011;54562;47.620;18.786;2022-10-16T14:42:11;11.40;;;5.20;;
67757;SDS011;54562;47.620;18.786;2022-10-16T14:45:26;8.60;;;4.80;;
67757;SDS011;54562;47.620;18.786;2022-10-16T14:48:36;9.10;;;4.60;;
67757;SDS011;54562;47.620;18.786;2022-10-16T14:51:49;8.10;;;5.20;;
67757;SDS011;54562;47.620;18.786;2022-10-16T14:54:58;11.50;;;5.20;;
67757;SDS011;54562;47.620;18.786;2022-10-16T14:58:07;8.40;;;4.80;;
67757;SDS011;54562;47.620;18.786;2022-10-16T15:01:20;17.10;;;5.20;;
67757;SDS011;54562;47.620;18.786;2022-10-16T15:04:28;9.10;;;4.60;;
67757;SDS011;54562;47.620;18.786;2022-10-16T15:07:36;9.40;;;4.50;;
67757;SDS011;54562;47.620;18.786;2022-10-16T15:10:45;12.50;;;4.50;;
67757;SDS011;54562;47.620;18.786;2022-10-16T15:13:54;13.60;;;4.80;;
67757;SDS011;54562;47.620;18.786;2022-10-16T15:17:01;9.80;;;4.40;;
67757;SDS011;54562;47.620;18.786;2022-10-16T15:20:10;14.60;;;4.60;;
67757;SDS011;54562;47.620;18.786;2022-10-16T15:23:20;8.50;;;4.50;;
67757;SDS011;54562;47.620;18.786;2022-10-16T15:26:30;9.50;;;4.20;;
67757;SDS011;54562;47.620;18.786;2022-10-16T15:29:38;8.20;;;4.20;;
67757;SDS011;54562;47.620;18.786;2022-10-16T15:32:47;8.60;;;4.40;;
67757;SDS011;54562;47.620;18.786;2022-10-16T15:35:55;8.70;;;4.30;;
67757;SDS011;54562;47.620;18.786;2022-10-16T15:39:03;8.30;;;4.40;;
67757;SDS011;54562;47.620;18.786;2022-10-16T15:42:17;14.90;;;4.30;;
67757;SDS011;54562;47.620;18.786;2022-10-16T15:45:25;7.80;;;4.30;;
67757;SDS011;54562;47.620;18.786;2022-10-16T15:48:34;8.00;;;4.00;;
67757;SDS011;54562;47.620;18.786;2022-10-16T15:51:42;8.40;;;4.60;;
67757;SDS011;54562;47.620;18.786;2022-10-16T15:54:51;8.50;;;3.90;;
67757;SDS011;54562;47.620;18.786;2022-10-16T15:58:00;10.30;;;4.20;;
67757;SDS011;54562;47.620;18.786;2022-10-16T16:01:08;8.90;;;4.40;;
67757;SDS011;54562;47.620;18.786;2022-10-16T16:04:17;10.20;;;4.50;;
67757;SDS011;54562;47.620;18.786;2022-10-16T16:07:46;9.70;;;4.40;;
67757;SDS011;54562;47.620;18.786;2022-10-16T16:11:02;10.10;;;4.50;;
67757;SDS011;54562;47.620;18.786;2022-10-16T16:14:13;7.80;;;4.50;;
67757;SDS011;54562;47.620;18.786;2022-10-16T16:17:21;9.20;;;4.30;;
67757;SDS011;54562;47.620;18.786;2022-10-16T16:20:30;7.50;;;3.90;;
67757;SDS011;54562;47.620;18.786;2022-10-16T16:23:37;8.10;;;4.10;;
67757;SDS011;54562;47.620;18.786;2022-10-16T16:26:46;9.70;;;4.60;;
67757;SDS011;54562;47.620;18.786;2022-10-16T16:29:55;8.90;;;4.50;;
67757;SDS011;54562;47.620;18.786;2022-10-16T16:33:03;10.10;;;4.30;;
67757;SDS011;54562;47.620;18.786;2022-10-16T16:36:11;11.20;;;4.60;;
67757;SDS011;54562;47.620;18.786;2022-10-16T16:39:19;9.60;;;4.50;;
67757;SDS011;54562;47.620;18.786;2022-10-16T16:42:28;10.00;;;4.60;;
67757;SDS011;54562;47.620;18.786;2022-10-16T16:45:37;8.10;;;4.50;;
67757;SDS011;54562;47.620;18.786;2022-10-16T16:48:46;8.60;;;5.00;;
67757;SDS011;54562;47.620;18.786;2022-10-16T16:51:56;8.50;;;4.60;;
67757;SDS011;54562;47.620;18.786;2022-10-16T16:55:05;8.00;;;4.60;;
67757;SDS011;54562;47.620;18.786;2022-10-16T16:58:14;8.00;;;4.90;;
67757;SDS011;54562;47.620;18.786;2022-10-16T17:01:24;8.60;;;4.70;;
67757;SDS011;54562;47.620;18.786;2022-10-16T17:04:33;8.90;;;4.60;;
67757;SDS011;54562;47.620;18.786;2022-10-16T17:07:42;9.50;;;4.40;;
67757;SDS011;54562;47.620;18.786;2022-10-16T17:10:50;9.40;;;5.20;;
67757;SDS011;54562;47.620;18.786;2022-10-16T17:14:00;7.50;;;4.40;;
67757;SDS011;54562;47.620;18.786;2022-10-16T17:17:08;10.00;;;4.60;;
67757;SDS011;54562;47.620;18.786;2022-10-16T17:20:17;8.90;;;4.90;;
67757;SDS011;54562;47.620;18.786;2022-10-16T17:23:25;9.00;;;4.60;;
67757;SDS011;54562;47.620;18.786;2022-10-16T17:26:33;9.30;;;4.30;;
67757;SDS011;54562;47.620;18.786;2022-10-16T17:29:45;8.90;;;4.60;;
67757;SDS011;54562;47.620;18.786;2022-10-16T17:32:57;9.10;;;4.80;;
67757;SDS011;54562;47.620;18.786;2022-10-16T17:36:06;8.50;;;4.50;;
67757;SDS011;54562;47.620;18.786;2022-10-16T17:39:16;9.00;;;4.50;;
67757;SDS011;54562;47.620;18.786;2022-10-16T17:42:24;9.60;;;4.80;;
67757;SDS011;54562;47.620;18.786;2022-10-16T17:45:37;10.20;;;4.40;;
67757;SDS011;54562;47.620;18.786;2022-10-16T17:48:47;10.50;;;4.80;;
67757;SDS011;54562;47.620;18.786;2022-10-16T17:51:58;8.20;;;4.80;;
67757;SDS011;54562;47.620;18.786;2022-10-16T17:55:08;9.20;;;4.80;;
67757;SDS011;54562;47.620;18.786;2022-10-16T17:58:16;9.90;;;4.60;;
67757;SDS011;54562;47.620;18.786;2022-10-16T18:01:26;9.30;;;4.80;;
67757;SDS011;54562;47.620;18.786;2022-10-16T18:04:35;9.50;;;4.70;;
67757;SDS011;54562;47.620;18.786;2022-10-16T18:07:43;9.50;;;4.60;;
67757;SDS011;54562;47.620;18.786;2022-10-16T18:10:51;9.20;;;4.80;;
67757;SDS011;54562;47.620;18.786;2022-10-16T18:14:00;8.00;;;4.50;;
67757;SDS011;54562;47.620;18.786;2022-10-16T18:17:09;9.10;;;4.60;;
67757;SDS011;54562;47.620;18.786;2022-10-16T18:20:18;9.70;;;4.90;;
67757;SDS011;54562;47.620;18.786;2022-10-16T18:23:26;9.30;;;5.10;;
67757;SDS011;54562;47.620;18.786;2022-10-16T18:26:34;10.60;;;4.60;;
67757;SDS011;54562;47.620;18.786;2022-10-16T18:29:44;9.60;;;4.50;;
67757;SDS011;54562;47.620;18.786;2022-10-16T18:32:52;8.00;;;4.80;;
67757;SDS011;54562;47.620;18.786;2022-10-16T18:36:03;8.60;;;4.90;;
67757;SDS011;54562;47.620;18.786;2022-10-16T18:39:13;8.90;;;4.70;;
67757;SDS011;54562;47.620;18.786;2022-10-16T18:42:22;10.10;;;4.90;;
67757;SDS011;54562;47.620;18.786;2022-10-16T18:45:30;8.20;;;4.80;;
67757;SDS011;54562;47.620;18.786;2022-10-16T18:48:38;7.60;;;4.80;;
67757;SDS011;54562;47.620;18.786;2022-10-16T18:51:47;9.10;;;5.20;;
67757;SDS011;54562;47.620;18.786;2022-10-16T18:55:00;9.80;;;5.40;;
67757;SDS011;54562;47.620;18.786;2022-10-16T18:58:09;10.40;;;4.90;;
67757;SDS011;54562;47.620;18.786;2022-10-16T19:01:19;8.30;;;4.80;;
67757;SDS011;54562;47.620;18.786;2022-10-16T19:04:30;9.70;;;4.50;;
67757;SDS011;54562;47.620;18.786;2022-10-16T19:07:38;8.20;;;4.60;;
67757;SDS011;54562;47.620;18.786;2022-10-16T19:10:47;8.80;;;4.40;;
67757;SDS011;54562;47.620;18.786;2022-10-16T19:13:57;10.00;;;4.60;;